createdAt,value
2022-12-20T00:02:20.588Z,1.54
2022-12-20T00:07:22.585Z,1.65
2022-12-20T00:12:29.816Z,1.70
2022-12-20T00:17:31.712Z,1.65
2022-12-20T00:22:33.610Z,1.69
2022-12-20T00:27:35.450Z,1.65
2022-12-20T00:32:38.543Z,1.74
2022-12-20T00:37:40.517Z,1.75
2022-12-20T00:42:42.278Z,1.84
2022-12-20T00:47:44.059Z,1.93
2022-12-20T00:52:45.814Z,1.89
2022-12-20T00:57:47.667Z,1.91
2022-12-20T01:02:49.566Z,1.86
2022-12-20T01:07:51.525Z,1.86
2022-12-20T01:12:54.158Z,1.88
2022-12-20T01:17:56.073Z,1.81
2022-12-20T01:22:57.843Z,1.72
2022-12-20T01:27:59.607Z,1.63
2022-12-20T01:33:01.479Z,1.63
2022-12-20T01:38:03.452Z,1.60
2022-12-20T01:43:05.251Z,1.65
2022-12-20T01:48:07.632Z,1.63
2022-12-20T01:53:10.320Z,1.70
2022-12-20T01:58:14.501Z,1.84
2022-12-20T02:03:16.966Z,1.97
2022-12-20T02:08:20.338Z,1.98
2022-12-20T02:13:30.353Z,2.02
2022-12-20T02:18:43.228Z,1.99
2022-12-20T02:24:03.661Z,1.83
2022-12-20T02:29:27.697Z,1.72
2022-12-20T02:34:33.900Z,1.64
2022-12-20T02:39:39.267Z,1.62
2022-12-20T02:45:10.246Z,1.54
2022-12-20T02:50:12.990Z,1.64
2022-12-20T02:55:16.284Z,1.59
2022-12-20T03:00:21.589Z,1.46
2022-12-20T03:05:25.709Z,1.27
2022-12-20T03:10:28.275Z,1.23
2022-12-20T03:15:30.227Z,1.19
2022-12-20T03:20:33.372Z,1.13
2022-12-20T03:25:35.181Z,1.08
2022-12-20T03:30:37.916Z,1.07
2022-12-20T03:35:39.976Z,1.13
2022-12-20T03:40:42.971Z,1.08
2022-12-20T03:45:46.875Z,1.06
2022-12-20T03:50:49.235Z,1.02
2022-12-20T03:55:51.081Z,1.07
2022-12-20T04:00:53.332Z,1.11
2022-12-20T04:06:16.191Z,1.14
2022-12-20T04:11:18.478Z,1.18
2022-12-20T04:16:29.852Z,1.22
2022-12-20T04:21:34.435Z,1.24
2022-12-20T04:26:36.624Z,1.27
2022-12-20T04:31:39.494Z,1.29
2022-12-20T04:36:41.625Z,1.27
2022-12-20T04:41:49.096Z,1.25
2022-12-20T04:46:50.973Z,1.23
2022-12-20T04:51:53.404Z,1.23
2022-12-20T04:56:55.958Z,1.22
2022-12-20T05:01:58.472Z,1.22
2022-12-20T05:07:20.566Z,1.21
2022-12-20T05:12:26.371Z,1.24
2022-12-20T05:17:31.756Z,1.19
2022-12-20T05:22:53.887Z,1.14
2022-12-20T05:27:56.098Z,1.14
2022-12-20T05:32:59.433Z,1.19
2022-12-20T05:38:02.830Z,1.14
2022-12-20T05:43:06.966Z,1.15
2022-12-20T05:48:17.320Z,1.17
2022-12-20T05:53:19.689Z,1.18
2022-12-20T05:58:24.606Z,1.21
2022-12-20T06:03:33.107Z,1.18
2022-12-20T06:08:37.232Z,1.12
2022-12-20T06:13:43.170Z,1.14
2022-12-20T06:18:45.286Z,1.15
2022-12-20T06:23:48.486Z,1.13
2022-12-20T06:28:57.150Z,1.10
2022-12-20T06:34:25.304Z,1.09
2022-12-20T06:39:27.591Z,1.14
2022-12-20T06:44:49.042Z,1.19
2022-12-20T06:49:51.005Z,1.21
2022-12-20T06:54:57.071Z,1.26
2022-12-20T06:59:59.639Z,1.35
2022-12-20T07:05:01.618Z,1.46
2022-12-20T07:10:04.041Z,1.53
2022-12-20T07:15:06.147Z,1.57
2022-12-20T07:20:13.255Z,1.68
2022-12-20T07:25:16.174Z,1.75
2022-12-20T07:30:19.355Z,1.87
2022-12-20T07:35:21.151Z,1.95
2022-12-20T07:40:22.995Z,2.12
2022-12-20T07:45:24.897Z,2.21
2022-12-20T07:50:28.688Z,2.26
2022-12-20T07:55:31.347Z,2.35
2022-12-20T08:00:33.697Z,2.38
2022-12-20T08:05:41.070Z,2.41
2022-12-20T08:10:43.674Z,2.45
2022-12-20T08:15:45.472Z,2.60
2022-12-20T08:20:47.958Z,2.70
2022-12-20T08:25:50.219Z,2.90
2022-12-20T08:30:52.294Z,3.07
2022-12-20T08:35:59.302Z,3.24
2022-12-20T08:41:08.004Z,3.34
2022-12-20T08:46:12.192Z,3.34
2022-12-20T08:51:14.165Z,3.43
2022-12-20T08:56:17.870Z,3.51
2022-12-20T09:01:21.908Z,3.60
2022-12-20T09:06:24.068Z,3.64
2022-12-20T09:11:26.921Z,3.70
2022-12-20T09:16:32.747Z,3.78
2022-12-20T09:21:35.302Z,3.81
2022-12-20T09:26:37.260Z,3.75
2022-12-20T09:31:39.107Z,3.78
2022-12-20T09:36:40.869Z,3.94
2022-12-20T09:41:44.360Z,4.11
2022-12-20T09:46:55.167Z,4.24
2022-12-20T09:52:21.705Z,4.39
2022-12-20T09:57:34.488Z,4.57
2022-12-20T10:02:58.353Z,4.57
2022-12-20T10:08:15.706Z,4.45
2022-12-20T10:13:48.604Z,4.34
2022-12-20T10:19:13.738Z,4.43
2022-12-20T10:24:21.508Z,4.54
2022-12-20T10:29:23.884Z,4.62
2022-12-20T10:34:27.838Z,4.71
2022-12-20T10:39:43.879Z,4.73
2022-12-20T10:44:45.691Z,4.88
2022-12-20T10:49:47.398Z,4.96
2022-12-20T10:54:49.191Z,4.98
2022-12-20T11:00:05.595Z,4.93
2022-12-20T11:05:14.543Z,5.00
2022-12-20T11:10:28.996Z,5.13
2022-12-20T11:15:34.898Z,5.30
2022-12-20T11:20:58.667Z,5.28
2022-12-20T11:26:28.440Z,5.21
2022-12-20T11:32:00.713Z,5.07
2022-12-20T11:37:14.375Z,4.82
2022-12-20T11:42:31.509Z,4.66
2022-12-20T11:48:01.177Z,4.64
2022-12-20T11:53:20.586Z,4.59
2022-12-20T11:58:41.403Z,4.59
2022-12-20T12:04:18.286Z,4.60
2022-12-20T12:09:30.609Z,4.68
2022-12-20T12:14:52.572Z,4.57
2022-12-20T12:20:01.367Z,4.52
2022-12-20T12:25:12.186Z,4.59
2022-12-20T12:30:16.373Z,4.61
2022-12-20T12:35:52.614Z,4.72
2022-12-20T12:41:03.779Z,4.70
2022-12-20T12:46:14.657Z,4.55
2022-12-20T12:51:24.081Z,4.51
2022-12-20T12:56:43.144Z,4.48
2022-12-20T13:02:16.213Z,4.20
2022-12-20T13:07:28.823Z,3.98
2022-12-20T13:12:36.505Z,3.89
2022-12-20T13:17:45.332Z,3.86
2022-12-20T13:23:05.562Z,3.88
2022-12-20T13:28:19.682Z,3.79
2022-12-20T13:33:42.050Z,3.72
2022-12-20T13:38:44.907Z,3.63
2022-12-20T13:43:49.678Z,3.58
2022-12-20T13:49:00.941Z,3.49
2022-12-20T13:54:05.622Z,3.51
2022-12-20T13:59:31.106Z,3.49
2022-12-20T14:04:42.885Z,3.50
2022-12-20T14:09:51.989Z,3.46
2022-12-20T14:14:54.467Z,3.46
2022-12-20T14:20:17.309Z,3.45
2022-12-20T14:25:28.070Z,3.47
2022-12-20T14:30:32.635Z,3.40
2022-12-20T14:35:34.484Z,3.31
2022-12-20T14:40:42.610Z,3.21
2022-12-20T14:45:44.472Z,3.01
2022-12-20T14:50:53.761Z,2.91
2022-12-20T14:55:56.277Z,2.89
2022-12-20T15:01:22.224Z,2.87
2022-12-20T15:06:34.859Z,2.73
2022-12-20T15:11:38.139Z,2.70
2022-12-20T15:16:47.781Z,2.73
2022-12-20T15:21:50.589Z,2.64
2022-12-20T15:26:52.463Z,2.49
2022-12-20T15:32:21.272Z,2.47
2022-12-20T15:37:22.993Z,2.47
2022-12-20T15:42:24.898Z,2.44
2022-12-20T15:47:26.628Z,2.40
2022-12-20T15:52:28.415Z,2.32
2022-12-20T15:57:30.939Z,2.31
2022-12-20T16:02:33.492Z,2.30
2022-12-20T16:07:35.639Z,2.23
2022-12-20T16:12:37.426Z,2.19
2022-12-20T16:17:39.263Z,2.16
2022-12-20T16:22:41.148Z,2.18
2022-12-20T16:27:42.861Z,2.13
2022-12-20T16:32:44.577Z,2.12
2022-12-20T16:37:46.281Z,2.07
2022-12-20T16:42:47.981Z,2.05
2022-12-20T16:47:50.095Z,2.06
2022-12-20T16:52:52.309Z,2.01
2022-12-20T16:57:54.397Z,2.08
2022-12-20T17:02:56.881Z,2.20
2022-12-20T17:07:59.127Z,2.21
2022-12-20T17:13:01.998Z,2.18
2022-12-20T17:18:03.919Z,2.25
2022-12-20T17:23:08.775Z,2.26
2022-12-20T17:28:10.525Z,2.31
2022-12-20T17:33:15.410Z,2.23
2022-12-20T17:38:17.124Z,2.25
2022-12-20T17:43:18.809Z,2.31
2022-12-20T17:48:20.593Z,2.36
2022-12-20T17:53:22.269Z,2.38
2022-12-20T17:58:24.026Z,2.46
2022-12-20T18:04:03.762Z,2.44
2022-12-20T18:08:52.321Z,2.39
2022-12-20T18:13:57.608Z,2.25
2022-12-20T18:19:00.912Z,2.13
2022-12-20T18:24:02.636Z,2.08
2022-12-20T18:29:04.418Z,2.12
2022-12-20T18:34:07.078Z,2.14
2022-12-20T18:39:12.618Z,2.22
2022-12-20T18:44:14.369Z,2.20
2022-12-20T18:49:16.123Z,2.12
2022-12-20T18:54:18.133Z,2.01
2022-12-20T18:59:21.212Z,1.94
2022-12-20T19:04:25.148Z,1.96
2022-12-20T19:09:27.184Z,2.01
2022-12-20T19:14:31.036Z,2.03
2022-12-20T19:19:32.865Z,2.00
2022-12-20T19:24:34.603Z,2.02
2022-12-20T19:29:36.324Z,1.99
2022-12-20T19:34:38.166Z,2.00
2022-12-20T19:39:39.821Z,1.99
2022-12-20T19:44:41.598Z,2.03
2022-12-20T19:49:43.321Z,2.04
2022-12-20T19:54:45.107Z,2.14
2022-12-20T19:59:50.880Z,2.21
2022-12-20T20:04:57.272Z,2.29
2022-12-20T20:09:59.102Z,2.28
2022-12-20T20:15:01.098Z,2.41
2022-12-20T20:20:03.070Z,2.38
2022-12-20T20:25:05.407Z,2.34
2022-12-20T20:30:07.888Z,2.41
2022-12-20T20:35:11.066Z,2.46
2022-12-20T20:40:14.278Z,2.51
2022-12-20T20:45:16.991Z,2.51
2022-12-20T20:50:18.751Z,2.58
2022-12-20T20:55:20.449Z,2.58
2022-12-20T21:00:22.412Z,2.56
2022-12-20T21:10:46.197Z,2.61
2022-12-20T21:15:48.139Z,2.63
2022-12-20T21:20:50.253Z,2.72
2022-12-20T21:25:58.575Z,2.74
2022-12-20T21:31:02.453Z,2.68
2022-12-20T21:36:06.928Z,2.76
2022-12-20T21:41:12.387Z,2.75
2022-12-20T21:46:14.271Z,2.78
2022-12-20T21:51:20.715Z,2.77
2022-12-20T21:56:24.226Z,2.86
2022-12-20T22:01:28.012Z,2.78
2022-12-20T22:06:31.586Z,2.77
2022-12-20T22:11:34.680Z,2.78
2022-12-20T22:16:37.789Z,2.85
2022-12-20T22:21:39.731Z,2.96
2022-12-20T22:26:41.712Z,3.00
2022-12-20T22:31:43.538Z,3.00
2022-12-20T22:36:45.346Z,2.97
2022-12-20T22:41:47.045Z,2.95
2022-12-20T22:46:48.833Z,2.90
2022-12-20T22:52:05.927Z,2.73
2022-12-20T22:57:10.398Z,2.57
2022-12-20T23:02:12.332Z,2.47
2022-12-20T23:07:14.434Z,2.41
2022-12-20T23:12:35.135Z,2.35
2022-12-20T23:17:36.840Z,2.29
2022-12-20T23:22:38.578Z,2.31
2022-12-20T23:27:43.015Z,2.31
2022-12-20T23:32:44.957Z,2.28
2022-12-20T23:37:47.226Z,2.29
2022-12-20T23:42:48.973Z,2.27
2022-12-20T23:47:50.739Z,2.23
2022-12-20T23:52:52.462Z,2.25
2022-12-20T23:57:54.231Z,2.22
